sensor_id;sensor_type;location;lat;lon;timestamp;pressure;altitude;pressure_sealevel;temperature
68012;BMP180;54794;48.348;7.878;2022-12-18T00:01:32;100261.00;;;-3.20
68012;BMP180;54794;48.348;7.878;2022-12-18T00:04:03;100259.00;;;-2.90
68012;BMP180;54794;48.348;7.878;2022-12-18T00:06:33;100257.00;;;-3.20
68012;BMP180;54794;48.348;7.878;2022-12-18T00:09:03;100259.00;;;-3.00
68012;BMP180;54794;48.348;7.878;2022-12-18T00:11:31;100274.00;;;-3.30
68012;BMP180;54794;48.348;7.878;2022-12-18T00:13:59;100269.00;;;-3.00
68012;BMP180;54794;48.348;7.878;2022-12-18T00:16:28;100297.00;;;-3.60
68012;BMP180;54794;48.348;7.878;2022-12-18T00:18:59;100299.00;;;-4.20
68012;BMP180;54794;48.348;7.878;2022-12-18T00:21:27;100297.00;;;-3.80
68012;BMP180;54794;48.348;7.878;2022-12-18T00:23:56;100280.00;;;-3.50
68012;BMP180;54794;48.348;7.878;2022-12-18T00:26:34;100287.00;;;-3.40
68012;BMP180;54794;48.348;7.878;2022-12-18T00:29:13;100274.00;;;-3.30
68012;BMP180;54794;48.348;7.878;2022-12-18T00:31:42;100276.00;;;-3.20
68012;BMP180;54794;48.348;7.878;2022-12-18T00:34:12;100276.00;;;-3.20
68012;BMP180;54794;48.348;7.878;2022-12-18T00:36:41;100269.00;;;-3.10
68012;BMP180;54794;48.348;7.878;2022-12-18T00:39:10;100269.00;;;-3.10
68012;BMP180;54794;48.348;7.878;2022-12-18T00:41:38;100279.00;;;-3.30
68012;BMP180;54794;48.348;7.878;2022-12-18T00:44:23;100272.00;;;-3.30
68012;BMP180;54794;48.348;7.878;2022-12-18T00:46:51;100273.00;;;-3.10
68012;BMP180;54794;48.348;7.878;2022-12-18T00:49:19;100276.00;;;-3.10
68012;BMP180;54794;48.348;7.878;2022-12-18T00:51:48;100285.00;;;-3.30
68012;BMP180;54794;48.348;7.878;2022-12-18T00:54:16;100276.00;;;-3.30
68012;BMP180;54794;48.348;7.878;2022-12-18T00:56:44;100280.00;;;-3.20
68012;BMP180;54794;48.348;7.878;2022-12-18T00:59:17;100273.00;;;-3.00
68012;BMP180;54794;48.348;7.878;2022-12-18T01:01:44;100269.00;;;-3.10
68012;BMP180;54794;48.348;7.878;2022-12-18T01:04:12;100264.00;;;-3.30
68012;BMP180;54794;48.348;7.878;2022-12-18T01:06:40;100273.00;;;-3.30
68012;BMP180;54794;48.348;7.878;2022-12-18T01:09:07;100279.00;;;-3.20
68012;BMP180;54794;48.348;7.878;2022-12-18T01:11:34;100269.00;;;-3.30
68012;BMP180;54794;48.348;7.878;2022-12-18T01:14:01;100272.00;;;-3.40
68012;BMP180;54794;48.348;7.878;2022-12-18T01:16:28;100281.00;;;-3.30
68012;BMP180;54794;48.348;7.878;2022-12-18T01:18:56;100289.00;;;-3.30
68012;BMP180;54794;48.348;7.878;2022-12-18T01:21:24;100289.00;;;-3.30
68012;BMP180;54794;48.348;7.878;2022-12-18T01:23:55;100295.00;;;-3.30
68012;BMP180;54794;48.348;7.878;2022-12-18T01:26:25;100295.00;;;-3.50
68012;BMP180;54794;48.348;7.878;2022-12-18T01:28:54;100284.00;;;-3.40
68012;BMP180;54794;48.348;7.878;2022-12-18T01:31:29;100288.00;;;-3.50
68012;BMP180;54794;48.348;7.878;2022-12-18T01:34:00;100287.00;;;-3.40
68012;BMP180;54794;48.348;7.878;2022-12-18T01:36:32;100286.00;;;-3.40
68012;BMP180;54794;48.348;7.878;2022-12-18T01:39:06;100283.00;;;-3.40
68012;BMP180;54794;48.348;7.878;2022-12-18T01:41:34;100290.00;;;-3.50
68012;BMP180;54794;48.348;7.878;2022-12-18T01:47:48;100292.00;;;-3.50
68012;BMP180;54794;48.348;7.878;2022-12-18T01:50:25;100303.00;;;-3.70
68012;BMP180;54794;48.348;7.878;2022-12-18T01:52:56;100301.00;;;-3.50
68012;BMP180;54794;48.348;7.878;2022-12-18T01:55:28;100303.00;;;-3.50
68012;BMP180;54794;48.348;7.878;2022-12-18T01:57:59;100302.00;;;-3.50
68012;BMP180;54794;48.348;7.878;2022-12-18T02:00:27;100306.00;;;-3.30
68012;BMP180;54794;48.348;7.878;2022-12-18T02:02:55;100312.00;;;-3.60
68012;BMP180;54794;48.348;7.878;2022-12-18T02:05:51;100294.00;;;-3.40
68012;BMP180;54794;48.348;7.878;2022-12-18T02:08:50;100296.00;;;-3.60
68012;BMP180;54794;48.348;7.878;2022-12-18T02:17:21;100291.00;;;-3.60
68012;BMP180;54794;48.348;7.878;2022-12-18T02:28:28;100318.00;;;-3.70
68012;BMP180;54794;48.348;7.878;2022-12-18T02:31:01;100310.00;;;-3.90
68012;BMP180;54794;48.348;7.878;2022-12-18T02:33:31;100301.00;;;-3.60
68012;BMP180;54794;48.348;7.878;2022-12-18T02:36:01;100296.00;;;-3.80
68012;BMP180;54794;48.348;7.878;2022-12-18T02:38:30;100305.00;;;-3.70
68012;BMP180;54794;48.348;7.878;2022-12-18T02:40:59;100303.00;;;-3.60
68012;BMP180;54794;48.348;7.878;2022-12-18T02:43:26;100315.00;;;-3.70
68012;BMP180;54794;48.348;7.878;2022-12-18T02:45:58;100311.00;;;-3.70
68012;BMP180;54794;48.348;7.878;2022-12-18T02:48:32;100306.00;;;-3.60
68012;BMP180;54794;48.348;7.878;2022-12-18T02:51:36;100306.00;;;-3.70
68012;BMP180;54794;48.348;7.878;2022-12-18T02:54:31;100306.00;;;-3.80
68012;BMP180;54794;48.348;7.878;2022-12-18T02:57:19;100303.00;;;-3.80
68012;BMP180;54794;48.348;7.878;2022-12-18T03:05:25;100305.00;;;-3.80
68012;BMP180;54794;48.348;7.878;2022-12-18T03:08:10;100319.00;;;-3.80
68012;BMP180;54794;48.348;7.878;2022-12-18T03:13:50;100323.00;;;-3.80
68012;BMP180;54794;48.348;7.878;2022-12-18T03:16:27;100318.00;;;-3.70
68012;BMP180;54794;48.348;7.878;2022-12-18T03:19:00;100321.00;;;-3.70
68012;BMP180;54794;48.348;7.878;2022-12-18T03:21:42;100310.00;;;-3.70
68012;BMP180;54794;48.348;7.878;2022-12-18T03:24:11;100315.00;;;-3.50
68012;BMP180;54794;48.348;7.878;2022-12-18T03:26:47;100312.00;;;-3.50
68012;BMP180;54794;48.348;7.878;2022-12-18T03:29:32;100308.00;;;-3.60
68012;BMP180;54794;48.348;7.878;2022-12-18T03:32:10;100323.00;;;-3.90
68012;BMP180;54794;48.348;7.878;2022-12-18T03:34:42;100321.00;;;-3.80
68012;BMP180;54794;48.348;7.878;2022-12-18T03:37:11;100325.00;;;-3.90
68012;BMP180;54794;48.348;7.878;2022-12-18T03:39:38;100319.00;;;-3.70
68012;BMP180;54794;48.348;7.878;2022-12-18T03:42:17;100308.00;;;-3.90
68012;BMP180;54794;48.348;7.878;2022-12-18T03:47:58;100323.00;;;-3.90
68012;BMP180;54794;48.348;7.878;2022-12-18T03:51:02;100326.00;;;-4.00
68012;BMP180;54794;48.348;7.878;2022-12-18T03:53:49;100340.00;;;-4.10
68012;BMP180;54794;48.348;7.878;2022-12-18T03:56:20;100337.00;;;-4.10
68012;BMP180;54794;48.348;7.878;2022-12-18T03:58:52;100331.00;;;-4.00
68012;BMP180;54794;48.348;7.878;2022-12-18T04:01:28;100336.00;;;-4.00
68012;BMP180;54794;48.348;7.878;2022-12-18T04:03:59;100323.00;;;-4.20
68012;BMP180;54794;48.348;7.878;2022-12-18T04:06:28;100322.00;;;-4.20
68012;BMP180;54794;48.348;7.878;2022-12-18T04:08:58;100331.00;;;-4.40
68012;BMP180;54794;48.348;7.878;2022-12-18T04:11:25;100336.00;;;-4.10
68012;BMP180;54794;48.348;7.878;2022-12-18T04:13:55;100323.00;;;-4.00
68012;BMP180;54794;48.348;7.878;2022-12-18T04:16:27;100326.00;;;-4.20
68012;BMP180;54794;48.348;7.878;2022-12-18T04:18:55;100321.00;;;-4.20
68012;BMP180;54794;48.348;7.878;2022-12-18T04:21:22;100313.00;;;-4.20
68012;BMP180;54794;48.348;7.878;2022-12-18T04:23:49;100311.00;;;-4.10
68012;BMP180;54794;48.348;7.878;2022-12-18T04:26:16;100310.00;;;-4.20
68012;BMP180;54794;48.348;7.878;2022-12-18T04:28:43;100312.00;;;-4.00
68012;BMP180;54794;48.348;7.878;2022-12-18T04:31:10;100312.00;;;-4.00
68012;BMP180;54794;48.348;7.878;2022-12-18T04:33:37;100310.00;;;-4.00
68012;BMP180;54794;48.348;7.878;2022-12-18T04:36:04;100302.00;;;-4.00
68012;BMP180;54794;48.348;7.878;2022-12-18T04:38:31;100315.00;;;-4.10
68012;BMP180;54794;48.348;7.878;2022-12-18T04:40:59;100305.00;;;-4.00
68012;BMP180;54794;48.348;7.878;2022-12-18T04:43:25;100312.00;;;-4.30
68012;BMP180;54794;48.348;7.878;2022-12-18T04:45:52;100304.00;;;-4.20
68012;BMP180;54794;48.348;7.878;2022-12-18T04:48:20;100309.00;;;-4.40
68012;BMP180;54794;48.348;7.878;2022-12-18T04:50:47;100315.00;;;-4.30
68012;BMP180;54794;48.348;7.878;2022-12-18T04:53:14;100301.00;;;-4.20
68012;BMP180;54794;48.348;7.878;2022-12-18T04:55:41;100304.00;;;-4.20
68012;BMP180;54794;48.348;7.878;2022-12-18T04:58:08;100313.00;;;-4.20
68012;BMP180;54794;48.348;7.878;2022-12-18T05:00:35;100297.00;;;-4.30
68012;BMP180;54794;48.348;7.878;2022-12-18T05:03:02;100303.00;;;-4.30
68012;BMP180;54794;48.348;7.878;2022-12-18T05:05:29;100290.00;;;-4.40
68012;BMP180;54794;48.348;7.878;2022-12-18T05:07:56;100299.00;;;-4.50
68012;BMP180;54794;48.348;7.878;2022-12-18T05:10:23;100301.00;;;-4.70
68012;BMP180;54794;48.348;7.878;2022-12-18T05:12:50;100299.00;;;-4.60
68012;BMP180;54794;48.348;7.878;2022-12-18T05:15:32;100297.00;;;-4.70
68012;BMP180;54794;48.348;7.878;2022-12-18T05:17:59;100298.00;;;-4.60
68012;BMP180;54794;48.348;7.878;2022-12-18T05:20:27;100305.00;;;-4.40
68012;BMP180;54794;48.348;7.878;2022-12-18T05:22:55;100294.00;;;-4.50
68012;BMP180;54794;48.348;7.878;2022-12-18T05:25:23;100304.00;;;-4.60
68012;BMP180;54794;48.348;7.878;2022-12-18T05:27:50;100302.00;;;-4.60
68012;BMP180;54794;48.348;7.878;2022-12-18T05:30:17;100308.00;;;-4.80
68012;BMP180;54794;48.348;7.878;2022-12-18T05:32:44;100306.00;;;-4.60
68012;BMP180;54794;48.348;7.878;2022-12-18T05:35:12;100302.00;;;-4.50
68012;BMP180;54794;48.348;7.878;2022-12-18T05:37:39;100309.00;;;-4.50
68012;BMP180;54794;48.348;7.878;2022-12-18T05:40:10;100312.00;;;-4.30
68012;BMP180;54794;48.348;7.878;2022-12-18T05:42:38;100317.00;;;-4.30
68012;BMP180;54794;48.348;7.878;2022-12-18T05:45:06;100308.00;;;-4.40
68012;BMP180;54794;48.348;7.878;2022-12-18T05:47:32;100311.00;;;-4.50
68012;BMP180;54794;48.348;7.878;2022-12-18T05:49:59;100310.00;;;-4.40
68012;BMP180;54794;48.348;7.878;2022-12-18T05:52:26;100314.00;;;-4.30
68012;BMP180;54794;48.348;7.878;2022-12-18T05:54:53;100309.00;;;-4.20
68012;BMP180;54794;48.348;7.878;2022-12-18T05:57:20;100320.00;;;-4.10
68012;BMP180;54794;48.348;7.878;2022-12-18T05:59:47;100318.00;;;-4.30
68012;BMP180;54794;48.348;7.878;2022-12-18T06:02:13;100335.00;;;-4.30
68012;BMP180;54794;48.348;7.878;2022-12-18T06:04:40;100338.00;;;-4.40
68012;BMP180;54794;48.348;7.878;2022-12-18T06:07:07;100344.00;;;-4.30
68012;BMP180;54794;48.348;7.878;2022-12-18T06:09:34;100343.00;;;-4.30
68012;BMP180;54794;48.348;7.878;2022-12-18T06:12:01;100343.00;;;-4.30
68012;BMP180;54794;48.348;7.878;2022-12-18T06:14:28;100351.00;;;-4.50
68012;BMP180;54794;48.348;7.878;2022-12-18T06:16:55;100354.00;;;-4.50
68012;BMP180;54794;48.348;7.878;2022-12-18T06:19:22;100355.00;;;-4.40
68012;BMP180;54794;48.348;7.878;2022-12-18T06:21:48;100365.00;;;-4.30
68012;BMP180;54794;48.348;7.878;2022-12-18T06:24:16;100359.00;;;-4.20
68012;BMP180;54794;48.348;7.878;2022-12-18T06:26:43;100370.00;;;-4.40
68012;BMP180;54794;48.348;7.878;2022-12-18T06:29:09;100366.00;;;-4.60
68012;BMP180;54794;48.348;7.878;2022-12-18T06:31:36;100378.00;;;-4.70
68012;BMP180;54794;48.348;7.878;2022-12-18T06:34:04;100387.00;;;-4.50
68012;BMP180;54794;48.348;7.878;2022-12-18T06:36:32;100387.00;;;-4.40
68012;BMP180;54794;48.348;7.878;2022-12-18T06:38:59;100377.00;;;-4.60
68012;BMP180;54794;48.348;7.878;2022-12-18T06:41:26;100389.00;;;-4.50
68012;BMP180;54794;48.348;7.878;2022-12-18T06:43:53;100384.00;;;-4.60
68012;BMP180;54794;48.348;7.878;2022-12-18T06:46:25;100389.00;;;-4.90
68012;BMP180;54794;48.348;7.878;2022-12-18T06:48:52;100396.00;;;-4.90
68012;BMP180;54794;48.348;7.878;2022-12-18T06:51:22;100402.00;;;-4.80
68012;BMP180;54794;48.348;7.878;2022-12-18T06:53:49;100408.00;;;-5.30
68012;BMP180;54794;48.348;7.878;2022-12-18T06:56:17;100402.00;;;-4.90
68012;BMP180;54794;48.348;7.878;2022-12-18T06:58:43;100396.00;;;-4.90
68012;BMP180;54794;48.348;7.878;2022-12-18T07:01:12;100395.00;;;-5.00
68012;BMP180;54794;48.348;7.878;2022-12-18T07:03:41;100396.00;;;-5.00
68012;BMP180;54794;48.348;7.878;2022-12-18T07:06:17;100392.00;;;-5.20
68012;BMP180;54794;48.348;7.878;2022-12-18T07:08:45;100391.00;;;-4.90
68012;BMP180;54794;48.348;7.878;2022-12-18T07:11:14;100401.00;;;-5.20
68012;BMP180;54794;48.348;7.878;2022-12-18T07:13:41;100422.00;;;-5.80
68012;BMP180;54794;48.348;7.878;2022-12-18T07:16:13;100410.00;;;-5.80
68012;BMP180;54794;48.348;7.878;2022-12-18T07:18:49;100400.00;;;-5.40
68012;BMP180;54794;48.348;7.878;2022-12-18T07:21:19;100389.00;;;-4.90
68012;BMP180;54794;48.348;7.878;2022-12-18T07:23:46;100397.00;;;-5.00
68012;BMP180;54794;48.348;7.878;2022-12-18T07:26:18;100393.00;;;-4.90
68012;BMP180;54794;48.348;7.878;2022-12-18T07:28:46;100402.00;;;-5.10
68012;BMP180;54794;48.348;7.878;2022-12-18T07:31:15;100404.00;;;-5.20
68012;BMP180;54794;48.348;7.878;2022-12-18T07:33:44;100407.00;;;-5.10
68012;BMP180;54794;48.348;7.878;2022-12-18T07:36:12;100415.00;;;-5.00
68012;BMP180;54794;48.348;7.878;2022-12-18T07:38:39;100416.00;;;-5.20
68012;BMP180;54794;48.348;7.878;2022-12-18T07:41:11;100428.00;;;-5.80
68012;BMP180;54794;48.348;7.878;2022-12-18T07:43:40;100436.00;;;-5.40
68012;BMP180;54794;48.348;7.878;2022-12-18T07:46:09;100421.00;;;-5.20
68012;BMP180;54794;48.348;7.878;2022-12-18T07:48:39;100417.00;;;-5.10
68012;BMP180;54794;48.348;7.878;2022-12-18T07:51:06;100427.00;;;-5.40
68012;BMP180;54794;48.348;7.878;2022-12-18T07:53:35;100436.00;;;-5.00
68012;BMP180;54794;48.348;7.878;2022-12-18T07:56:07;100441.00;;;-5.30
68012;BMP180;54794;48.348;7.878;2022-12-18T07:58:55;100438.00;;;-5.40
68012;BMP180;54794;48.348;7.878;2022-12-18T08:01:22;100456.00;;;-5.50
68012;BMP180;54794;48.348;7.878;2022-12-18T08:03:50;100459.00;;;-5.10
68012;BMP180;54794;48.348;7.878;2022-12-18T08:06:19;100450.00;;;-5.10
68012;BMP180;54794;48.348;7.878;2022-12-18T08:08:55;100452.00;;;-5.20
68012;BMP180;54794;48.348;7.878;2022-12-18T08:11:24;100443.00;;;-5.30
68012;BMP180;54794;48.348;7.878;2022-12-18T08:13:52;100447.00;;;-5.30
68012;BMP180;54794;48.348;7.878;2022-12-18T08:16:20;100447.00;;;-5.20
68012;BMP180;54794;48.348;7.878;2022-12-18T08:18:48;100439.00;;;-5.20
68012;BMP180;54794;48.348;7.878;2022-12-18T08:21:22;100444.00;;;-5.30
68012;BMP180;54794;48.348;7.878;2022-12-18T08:23:51;100454.00;;;-5.60
68012;BMP180;54794;48.348;7.878;2022-12-18T08:26:19;100451.00;;;-5.30
68012;BMP180;54794;48.348;7.878;2022-12-18T08:28:48;100427.00;;;-4.90
68012;BMP180;54794;48.348;7.878;2022-12-18T08:31:17;100435.00;;;-5.60
68012;BMP180;54794;48.348;7.878;2022-12-18T08:33:44;100438.00;;;-5.80
68012;BMP180;54794;48.348;7.878;2022-12-18T08:36:12;100429.00;;;-5.60
68012;BMP180;54794;48.348;7.878;2022-12-18T08:38:39;100421.00;;;-5.30
68012;BMP180;54794;48.348;7.878;2022-12-18T08:41:13;100418.00;;;-5.30
68012;BMP180;54794;48.348;7.878;2022-12-18T08:43:40;100400.00;;;-5.10
68012;BMP180;54794;48.348;7.878;2022-12-18T08:46:33;100395.00;;;-5.40
68012;BMP180;54794;48.348;7.878;2022-12-18T08:49:01;100394.00;;;-5.00
68012;BMP180;54794;48.348;7.878;2022-12-18T08:51:28;100382.00;;;-4.80
68012;BMP180;54794;48.348;7.878;2022-12-18T08:53:56;100394.00;;;-5.00
68012;BMP180;54794;48.348;7.878;2022-12-18T08:56:23;100406.00;;;-5.20
68012;BMP180;54794;48.348;7.878;2022-12-18T08:58:54;100399.00;;;-4.80
68012;BMP180;54794;48.348;7.878;2022-12-18T09:01:22;100397.00;;;-4.70
68012;BMP180;54794;48.348;7.878;2022-12-18T09:03:50;100390.00;;;-4.50
68012;BMP180;54794;48.348;7.878;2022-12-18T09:06:21;100390.00;;;-4.50
68012;BMP180;54794;48.348;7.878;2022-12-18T09:08:49;100386.00;;;-4.70
68012;BMP180;54794;48.348;7.878;2022-12-18T09:11:26;100388.00;;;-4.60
68012;BMP180;54794;48.348;7.878;2022-12-18T09:13:55;100394.00;;;-4.40
68012;BMP180;54794;48.348;7.878;2022-12-18T09:16:25;100387.00;;;-4.30
68012;BMP180;54794;48.348;7.878;2022-12-18T09:18:59;100387.00;;;-4.60
68012;BMP180;54794;48.348;7.878;2022-12-18T09:21:30;100381.00;;;-4.30
68012;BMP180;54794;48.348;7.878;2022-12-18T09:24:03;100399.00;;;-4.60
68012;BMP180;54794;48.348;7.878;2022-12-18T09:26:34;100394.00;;;-4.70
68012;BMP180;54794;48.348;7.878;2022-12-18T09:29:03;100408.00;;;-4.30
68012;BMP180;54794;48.348;7.878;2022-12-18T09:31:30;100412.00;;;-4.50
68012;BMP180;54794;48.348;7.878;2022-12-18T09:33:57;100419.00;;;-4.60
68012;BMP180;54794;48.348;7.878;2022-12-18T09:36:24;100418.00;;;-5.00
68012;BMP180;54794;48.348;7.878;2022-12-18T09:38:50;100428.00;;;-5.60
68012;BMP180;54794;48.348;7.878;2022-12-18T09:41:45;100431.00;;;-5.50
68012;BMP180;54794;48.348;7.878;2022-12-18T09:44:25;100422.00;;;-4.90
68012;BMP180;54794;48.348;7.878;2022-12-18T09:47:26;100445.00;;;-5.50
68012;BMP180;54794;48.348;7.878;2022-12-18T09:50:01;100426.00;;;-4.60
68012;BMP180;54794;48.348;7.878;2022-12-18T09:52:36;100438.00;;;-4.50
68012;BMP180;54794;48.348;7.878;2022-12-18T09:58:00;100447.00;;;-4.70
68012;BMP180;54794;48.348;7.878;2022-12-18T10:00:29;100445.00;;;-5.20
68012;BMP180;54794;48.348;7.878;2022-12-18T10:03:03;100437.00;;;-5.30
68012;BMP180;54794;48.348;7.878;2022-12-18T10:13:16;100433.00;;;-4.80
68012;BMP180;54794;48.348;7.878;2022-12-18T10:16:08;100418.00;;;-4.70
68012;BMP180;54794;48.348;7.878;2022-12-18T10:19:02;100402.00;;;-4.60
68012;BMP180;54794;48.348;7.878;2022-12-18T10:24:37;100393.00;;;-4.00
68012;BMP180;54794;48.348;7.878;2022-12-18T10:27:15;100386.00;;;-3.80
68012;BMP180;54794;48.348;7.878;2022-12-18T10:29:44;100397.00;;;-4.10
68012;BMP180;54794;48.348;7.878;2022-12-18T10:32:23;100401.00;;;-3.80
68012;BMP180;54794;48.348;7.878;2022-12-18T10:34:55;100401.00;;;-4.00
68012;BMP180;54794;48.348;7.878;2022-12-18T10:37:29;100395.00;;;-3.90
68012;BMP180;54794;48.348;7.878;2022-12-18T10:40:15;100395.00;;;-4.30
68012;BMP180;54794;48.348;7.878;2022-12-18T10:43:14;100379.00;;;-4.20
68012;BMP180;54794;48.348;7.878;2022-12-18T10:45:59;100382.00;;;-4.30
68012;BMP180;54794;48.348;7.878;2022-12-18T10:48:28;100384.00;;;-4.50
68012;BMP180;54794;48.348;7.878;2022-12-18T10:50:57;100391.00;;;-4.30
68012;BMP180;54794;48.348;7.878;2022-12-18T10:53:41;100373.00;;;-4.10
68012;BMP180;54794;48.348;7.878;2022-12-18T10:56:10;100372.00;;;-4.10
68012;BMP180;54794;48.348;7.878;2022-12-18T10:58:39;100364.00;;;-4.00
68012;BMP180;54794;48.348;7.878;2022-12-18T11:01:13;100363.00;;;-3.70
68012;BMP180;54794;48.348;7.878;2022-12-18T11:03:59;100378.00;;;-3.60
68012;BMP180;54794;48.348;7.878;2022-12-18T11:06:29;100371.00;;;-3.80
68012;BMP180;54794;48.348;7.878;2022-12-18T11:09:19;100364.00;;;-3.90
68012;BMP180;54794;48.348;7.878;2022-12-18T11:11:55;100366.00;;;-4.00
68012;BMP180;54794;48.348;7.878;2022-12-18T11:14:42;100360.00;;;-4.00
68012;BMP180;54794;48.348;7.878;2022-12-18T11:20:01;100364.00;;;-4.10
68012;BMP180;54794;48.348;7.878;2022-12-18T11:22:33;100356.00;;;-3.70
68012;BMP180;54794;48.348;7.878;2022-12-18T11:25:04;100343.00;;;-3.60
68012;BMP180;54794;48.348;7.878;2022-12-18T11:27:59;100340.00;;;-3.50
68012;BMP180;54794;48.348;7.878;2022-12-18T11:30:31;100354.00;;;-3.30
68012;BMP180;54794;48.348;7.878;2022-12-18T11:33:22;100349.00;;;-3.40
68012;BMP180;54794;48.348;7.878;2022-12-18T11:35:57;100344.00;;;-3.20
68012;BMP180;54794;48.348;7.878;2022-12-18T11:38:30;100326.00;;;-3.10
68012;BMP180;54794;48.348;7.878;2022-12-18T11:41:21;100340.00;;;-3.10
68012;BMP180;54794;48.348;7.878;2022-12-18T11:44:16;100343.00;;;-2.80
68012;BMP180;54794;48.348;7.878;2022-12-18T11:46:55;100345.00;;;-3.40
68012;BMP180;54794;48.348;7.878;2022-12-18T11:49:33;100349.00;;;-3.10
68012;BMP180;54794;48.348;7.878;2022-12-18T11:52:13;100326.00;;;-3.00
68012;BMP180;54794;48.348;7.878;2022-12-18T11:54:42;100325.00;;;-2.90
68012;BMP180;54794;48.348;7.878;2022-12-18T12:00:22;100326.00;;;-2.90
68012;BMP180;54794;48.348;7.878;2022-12-18T12:06:37;100315.00;;;-3.30
68012;BMP180;54794;48.348;7.878;2022-12-18T12:17:34;100311.00;;;-3.40
68012;BMP180;54794;48.348;7.878;2022-12-18T12:26:10;100319.00;;;-3.30
68012;BMP180;54794;48.348;7.878;2022-12-18T12:35:11;100332.00;;;-3.60
68012;BMP180;54794;48.348;7.878;2022-12-18T12:38:16;100330.00;;;-3.70
68012;BMP180;54794;48.348;7.878;2022-12-18T12:41:00;100311.00;;;-3.20
68012;BMP180;54794;48.348;7.878;2022-12-18T12:46:19;100308.00;;;-3.20
68012;BMP180;54794;48.348;7.878;2022-12-18T12:48:58;100303.00;;;-2.80
68012;BMP180;54794;48.348;7.878;2022-12-18T12:51:32;100309.00;;;-2.90
68012;BMP180;54794;48.348;7.878;2022-12-18T12:54:05;100302.00;;;-2.80
68012;BMP180;54794;48.348;7.878;2022-12-18T12:56:57;100304.00;;;-3.00
68012;BMP180;54794;48.348;7.878;2022-12-18T13:00:17;100300.00;;;-2.60
68012;BMP180;54794;48.348;7.878;2022-12-18T13:05:58;100285.00;;;-2.90
68012;BMP180;54794;48.348;7.878;2022-12-18T13:08:31;100268.00;;;-2.50
68012;BMP180;54794;48.348;7.878;2022-12-18T13:11:02;100263.00;;;-2.40
68012;BMP180;54794;48.348;7.878;2022-12-18T13:14:35;100254.00;;;-2.30
68012;BMP180;54794;48.348;7.878;2022-12-18T13:20:02;100247.00;;;-2.30
68012;BMP180;54794;48.348;7.878;2022-12-18T13:22:38;100252.00;;;-2.30
68012;BMP180;54794;48.348;7.878;2022-12-18T13:25:35;100258.00;;;-2.20
68012;BMP180;54794;48.348;7.878;2022-12-18T13:28:15;100270.00;;;-2.40
68012;BMP180;54794;48.348;7.878;2022-12-18T13:30:56;100250.00;;;-2.30
68012;BMP180;54794;48.348;7.878;2022-12-18T13:33:38;100247.00;;;-2.10
68012;BMP180;54794;48.348;7.878;2022-12-18T13:36:32;100245.00;;;-2.20
68012;BMP180;54794;48.348;7.878;2022-12-18T13:44:41;100245.00;;;-2.20
68012;BMP180;54794;48.348;7.878;2022-12-18T13:47:34;100253.00;;;-2.20
68012;BMP180;54794;48.348;7.878;2022-12-18T13:50:23;100250.00;;;-2.10
68012;BMP180;54794;48.348;7.878;2022-12-18T13:52:59;100242.00;;;-2.10
68012;BMP180;54794;48.348;7.878;2022-12-18T13:55:27;100253.00;;;-2.30
68012;BMP180;54794;48.348;7.878;2022-12-18T13:58:06;100257.00;;;-2.60
68012;BMP180;54794;48.348;7.878;2022-12-18T14:00:34;100243.00;;;-2.60
68012;BMP180;54794;48.348;7.878;2022-12-18T14:03:01;100236.00;;;-2.40
68012;BMP180;54794;48.348;7.878;2022-12-18T14:05:31;100230.00;;;-2.40
68012;BMP180;54794;48.348;7.878;2022-12-18T14:08:04;100235.00;;;-2.80
68012;BMP180;54794;48.348;7.878;2022-12-18T14:10:43;100232.00;;;-2.80
68012;BMP180;54794;48.348;7.878;2022-12-18T14:13:27;100232.00;;;-2.90
68012;BMP180;54794;48.348;7.878;2022-12-18T14:16:00;100246.00;;;-2.90
68012;BMP180;54794;48.348;7.878;2022-12-18T14:18:56;100243.00;;;-2.30
68012;BMP180;54794;48.348;7.878;2022-12-18T14:21:49;100247.00;;;-2.60
68012;BMP180;54794;48.348;7.878;2022-12-18T14:24:21;100246.00;;;-2.70
68012;BMP180;54794;48.348;7.878;2022-12-18T14:26:50;100244.00;;;-2.80
68012;BMP180;54794;48.348;7.878;2022-12-18T14:29:26;100258.00;;;-2.80
68012;BMP180;54794;48.348;7.878;2022-12-18T14:32:21;100261.00;;;-2.90
68012;BMP180;54794;48.348;7.878;2022-12-18T14:34:54;100257.00;;;-2.60
68012;BMP180;54794;48.348;7.878;2022-12-18T14:37:27;100266.00;;;-3.00
68012;BMP180;54794;48.348;7.878;2022-12-18T14:39:59;100263.00;;;-3.10
68012;BMP180;54794;48.348;7.878;2022-12-18T14:42:36;100274.00;;;-3.20
68012;BMP180;54794;48.348;7.878;2022-12-18T14:45:36;100264.00;;;-3.50
68012;BMP180;54794;48.348;7.878;2022-12-18T14:48:17;100275.00;;;-3.50
68012;BMP180;54794;48.348;7.878;2022-12-18T14:53:44;100290.00;;;-3.40
68012;BMP180;54794;48.348;7.878;2022-12-18T14:56:27;100279.00;;;-3.30
68012;BMP180;54794;48.348;7.878;2022-12-18T14:59:04;100280.00;;;-3.20
68012;BMP180;54794;48.348;7.878;2022-12-18T15:02:00;100287.00;;;-3.20
68012;BMP180;54794;48.348;7.878;2022-12-18T15:04:39;100271.00;;;-3.40
68012;BMP180;54794;48.348;7.878;2022-12-18T15:07:24;100271.00;;;-3.20
68012;BMP180;54794;48.348;7.878;2022-12-18T15:18:23;100301.00;;;-3.70
68012;BMP180;54794;48.348;7.878;2022-12-18T15:21:19;100288.00;;;-3.40
68012;BMP180;54794;48.348;7.878;2022-12-18T15:23:49;100285.00;;;-3.30
68012;BMP180;54794;48.348;7.878;2022-12-18T15:26:20;100279.00;;;-3.20
68012;BMP180;54794;48.348;7.878;2022-12-18T15:28:57;100288.00;;;-3.00
68012;BMP180;54794;48.348;7.878;2022-12-18T15:31:34;100275.00;;;-2.80
68012;BMP180;54794;48.348;7.878;2022-12-18T15:36:40;100281.00;;;-3.00
68012;BMP180;54794;48.348;7.878;2022-12-18T15:39:11;100276.00;;;-2.90
68012;BMP180;54794;48.348;7.878;2022-12-18T15:41:39;100276.00;;;-2.80
68012;BMP180;54794;48.348;7.878;2022-12-18T15:44:24;100280.00;;;-2.70
68012;BMP180;54794;48.348;7.878;2022-12-18T15:46:52;100284.00;;;-2.70
68012;BMP180;54794;48.348;7.878;2022-12-18T15:49:19;100282.00;;;-2.90
68012;BMP180;54794;48.348;7.878;2022-12-18T15:51:56;100291.00;;;-2.80
68012;BMP180;54794;48.348;7.878;2022-12-18T15:54:24;100280.00;;;-2.60
68012;BMP180;54794;48.348;7.878;2022-12-18T15:57:13;100290.00;;;-2.50
68012;BMP180;54794;48.348;7.878;2022-12-18T15:59:55;100295.00;;;-2.80
68012;BMP180;54794;48.348;7.878;2022-12-18T16:02:25;100288.00;;;-2.80
68012;BMP180;54794;48.348;7.878;2022-12-18T16:04:53;100286.00;;;-2.80
68012;BMP180;54794;48.348;7.878;2022-12-18T16:07:21;100275.00;;;-2.60
68012;BMP180;54794;48.348;7.878;2022-12-18T16:09:51;100277.00;;;-2.50
68012;BMP180;54794;48.348;7.878;2022-12-18T16:12:23;100267.00;;;-3.00
68012;BMP180;54794;48.348;7.878;2022-12-18T16:14:50;100270.00;;;-2.90